Zap, North Dakota
Current Conditions -  °F | °C
As of 9:15 AM on Thursday 30 Oct 2014 (Local Time) from KHZE Reporting Station
Overcast Overcast  
Wind Chill: 34°   Ceiling: 3500
Heat Index: 34°   Visibility: 10mi
Dew Point: 32°   Wind: 3mph
Humidity: 93%   Direction: 40°NE
Pressure: 30.34"   Gusts: NA
Location:  47.29°N, 101.92°W
Report Text: KHZE 301515Z AUTO 04003KT 10SM FEW025 BKN035 OVC095 01/00 A3034 RMK AO2
Loading
Personal Weather Stations






























Interactive Weather Map
Tropical Storm Tracking
New forecast layout! Learn more

10-Day Weather Forecast

Advertisements
Track Severe Weather on mobile